메인 페이지
METAR-TAF:

METAR-TAF

공항 :

퀘벡, 퀘벡, 캐나다

위도: 46-48N, 경도: 071-23W, 고도: 70m

현재 날씨관측

예보는 38분 전, 10:00시(UTC)에 발표되었습니다.
서북서3kt
온도 5°C
습도 81%
기압 1017 hPa
시정: 32.2km
고도 7500ft 상공 구름 조금
고도 14000ft 상공 구름 많음

METAR: CYQB 251000Z 29003KT 20SM FEW075 BKN140 05/02 A3004 RMK AC1AC6 SLP175

시각: 06:38 (10:38 UTC)

예보

예보는 4 시간 59분 전, 05:39시(UTC)에 발표되었습니다.
예보 대상 시간: 25일 06시부터 26일 06시까지 (UTC)
서남서5kt
시정: 10km
고도 15000ft 상공 구름 많음
25일 1200시부터 (UTC)
남남서4kt
시정: 10km
고도 4000ft 상공 구름 보통
고도 12000ft 상공 흐림
25일 1800시부터 (UTC)
여러 방향의 바람 3kt
시정: 10km
고도 6000ft 상공 흐림
일시적
25일 18시부터 25일 21시까지 (UTC)
시정: 10km
약한소나기
25일 2100시부터 (UTC)
동북동7kt
시정: 8.0km
고도 800ft 상공 구름 보통
고도 1500ft 상공 흐림
약한비, 박무
25일 2300시부터 (UTC)
동북동12kt
고도 500ft 상공 흐림
약한비, 박무
전환 중
25일 23시부터 26일 01시까지 (UTC)
동북동15kt, 순간 최대 풍속 25kt

TAF: CYQB 250539Z 2506/2606 24005KT P6SM BKN150 FM251200 20004KT P6SM SCT040 OVC120 FM251800 VRB03KT P6SM OVC060 TEMPO 2518/2521 P6SM -SHRA FM252100 06007KT 5SM -RA BR SCT008 OVC015 FM252300 06012KT 11/2SM -RA BR OVC005 BECMG 2523/2601 07015G25KT RMK NXT FCST BY 251200Z

4,000개 이상의 공항 관측 자료 및 예보 (METAR 및 TAF 보고).

지도상에서 검색 가능한 기상관측소가 노란 점과 빨간 점으로 표시되어 있습니다.

기상관측소 명을 보려면 표시 위로 마우스를 이동하세요.

날씨 관측과 예보를 보려면 클릭하세요.

지도 변경 : 확대하려면 엑스 표시가 있는 녹색 버튼, 축소하려면 빼기 표시가 있는 녹색 버튼, 다음 페이지의 지도를 보려면 녹색 화살표를 클릭하세요.


METAR-TAF: